createdAt,value
2022-11-25T00:01:34.410Z,-0.30
2022-11-25T00:06:30.065Z,-1.40
2022-11-25T00:08:59.708Z,-1.40
2022-11-25T00:11:27.218Z,-1.50
2022-11-25T00:13:54.659Z,-1.20
2022-11-25T00:16:23.764Z,-1.20
2022-11-25T00:18:52.874Z,-1.20
2022-11-25T00:21:22.084Z,-1.00
2022-11-25T00:23:57.322Z,-1.00
2022-11-25T00:26:26.116Z,-1.30
2022-11-25T00:28:53.686Z,-1.20
2022-11-25T00:31:23.459Z,-1.20
2022-11-25T00:33:51.460Z,-1.00
2022-11-25T00:36:30.801Z,-1.30
2022-11-25T00:39:06.472Z,-1.50
2022-11-25T00:44:37.303Z,-1.20
2022-11-25T00:47:05.599Z,-1.30
2022-11-25T00:49:33.032Z,-0.50
2022-11-25T00:52:00.302Z,-1.20
2022-11-25T00:54:27.735Z,-1.20
2022-11-25T00:59:22.070Z,-1.40
2022-11-25T01:01:49.111Z,-1.10
2022-11-25T01:06:43.958Z,-1.30
2022-11-25T01:09:12.780Z,-1.60
2022-11-25T01:11:40.455Z,-1.30
2022-11-25T01:21:33.072Z,-1.30
2022-11-25T01:24:01.754Z,-1.40
2022-11-25T01:29:01.861Z,-1.30
2022-11-25T01:31:31.219Z,-1.30
2022-11-25T01:34:07.430Z,-1.40
2022-11-25T01:41:32.254Z,-1.40
2022-11-25T01:44:17.651Z,-1.30
2022-11-25T01:47:10.536Z,-1.60
2022-11-25T01:49:46.533Z,-0.30
2022-11-25T01:54:48.025Z,-1.40
2022-11-25T01:57:21.778Z,-1.30
2022-11-25T01:59:52.647Z,-1.60
2022-11-25T02:02:21.234Z,-1.70
2022-11-25T02:07:40.355Z,-1.60
2022-11-25T02:10:13.932Z,-0.70
2022-11-25T02:12:43.314Z,-1.40
2022-11-25T02:17:37.866Z,-1.30
2022-11-25T02:20:12.184Z,-1.20
2022-11-25T02:22:59.898Z,-1.20
2022-11-25T02:25:28.658Z,-1.50
2022-11-25T02:28:03.630Z,-1.50
2022-11-25T02:30:30.713Z,-1.30
2022-11-25T02:32:59.160Z,-1.20
2022-11-25T02:35:37.473Z,-1.40
2022-11-25T02:40:34.578Z,-1.40
2022-11-25T02:43:01.500Z,-1.30
2022-11-25T02:45:48.864Z,-1.50
2022-11-25T02:58:05.388Z,-1.80
2022-11-25T03:00:32.277Z,-1.50
2022-11-25T03:05:27.108Z,-1.80
2022-11-25T03:07:54.094Z,-0.90
2022-11-25T03:10:21.884Z,-1.30
2022-11-25T03:22:39.860Z,-1.40
2022-11-25T03:25:07.131Z,-1.30
2022-11-25T03:27:34.699Z,-1.30
2022-11-25T03:30:01.768Z,-1.10
2022-11-25T03:34:58.782Z,-1.20
2022-11-25T03:37:25.880Z,-1.40
2022-11-25T03:39:52.813Z,-1.30
2022-11-25T03:44:46.882Z,-1.60
2022-11-25T03:47:13.871Z,-1.50
2022-11-25T03:52:08.192Z,-0.90
2022-11-25T03:54:35.271Z,-1.20
2022-11-25T04:01:56.775Z,-1.70
2022-11-25T04:04:24.587Z,-1.40
2022-11-25T04:06:51.412Z,-1.40
2022-11-25T04:12:03.941Z,-1.50
2022-11-25T04:14:31.103Z,-1.30
2022-11-25T04:24:20.570Z,-1.20
2022-11-25T04:36:36.550Z,-1.50
2022-11-25T04:39:04.588Z,-0.80
2022-11-25T04:44:01.860Z,-1.30
2022-11-25T04:46:36.127Z,-1.20
2022-11-25T04:49:03.006Z,0.00
2022-11-25T04:59:12.959Z,-1.20
2022-11-25T05:01:40.213Z,-1.20
2022-11-25T05:06:34.367Z,-1.10
2022-11-25T05:09:01.306Z,-1.00
2022-11-25T05:13:55.525Z,-0.30
2022-11-25T05:23:44.077Z,-1.20
2022-11-25T05:31:06.256Z,-0.50
2022-11-25T05:33:33.195Z,-1.10
2022-11-25T05:36:02.812Z,-1.60
2022-11-25T05:38:30.068Z,-1.10
2022-11-25T05:41:05.629Z,-1.40
2022-11-25T05:46:00.502Z,-1.10
2022-11-25T05:48:27.385Z,-1.30
2022-11-25T05:53:21.517Z,-1.70
2022-11-25T05:56:00.371Z,-1.20
2022-11-25T05:58:29.298Z,-1.40
2022-11-25T06:03:28.660Z,-1.10
2022-11-25T06:05:59.742Z,-1.10
2022-11-25T06:08:27.998Z,-0.80
2022-11-25T06:10:54.931Z,-1.10
2022-11-25T06:18:18.082Z,-1.00
2022-11-25T06:25:40.019Z,-1.00
2022-11-25T06:35:36.552Z,-0.90
2022-11-25T06:45:25.328Z,-0.60
2022-11-25T06:47:52.180Z,-0.70
2022-11-25T06:50:19.042Z,-0.80
2022-11-25T07:00:08.292Z,-0.60
2022-11-25T07:07:38.817Z,-0.50
2022-11-25T07:10:06.473Z,-0.80
2022-11-25T07:12:33.381Z,-0.50
2022-11-25T07:15:00.546Z,-0.70
2022-11-25T07:17:27.415Z,-0.70
2022-11-25T07:19:54.334Z,-0.80
2022-11-25T07:22:21.160Z,-0.70
2022-11-25T07:24:47.983Z,-0.60
2022-11-25T07:27:14.877Z,-0.60
2022-11-25T07:29:58.270Z,-0.70
2022-11-25T07:32:29.085Z,-0.80
2022-11-25T07:34:56.149Z,-0.70
2022-11-25T07:37:23.034Z,-0.80
2022-11-25T07:39:49.929Z,-0.90
2022-11-25T07:42:16.769Z,-0.70
2022-11-25T07:44:43.622Z,-0.70
2022-11-25T07:47:10.462Z,-0.70
2022-11-25T07:49:37.483Z,-0.80
2022-11-25T07:52:04.699Z,-0.80
2022-11-25T07:54:33.209Z,-0.80
2022-11-25T07:57:00.063Z,-0.80
2022-11-25T07:59:27.100Z,-0.80
2022-11-25T08:01:55.366Z,-0.70
2022-11-25T08:04:23.022Z,-0.70
2022-11-25T08:06:51.861Z,-0.60
2022-11-25T08:09:22.143Z,-0.60
2022-11-25T08:11:49.790Z,-0.60
2022-11-25T08:14:17.573Z,-0.60
2022-11-25T08:16:45.335Z,-0.40
2022-11-25T08:19:15.679Z,-0.40
2022-11-25T08:21:42.922Z,-0.40
2022-11-25T08:24:16.128Z,-0.60
2022-11-25T08:26:43.312Z,-0.60
2022-11-25T08:29:14.094Z,-0.50
2022-11-25T08:31:41.029Z,-0.50
2022-11-25T08:34:08.002Z,-0.60
2022-11-25T08:36:35.816Z,-0.60
2022-11-25T08:39:22.619Z,-0.60
2022-11-25T08:41:53.034Z,-0.60
2022-11-25T08:44:19.938Z,-0.40
2022-11-25T08:46:46.952Z,-0.50
2022-11-25T08:49:16.856Z,-0.50
2022-11-25T08:51:43.976Z,-0.50
2022-11-25T08:54:10.933Z,-0.60
2022-11-25T08:56:37.787Z,-0.50
2022-11-25T08:59:04.929Z,-0.50
2022-11-25T09:01:32.548Z,-0.50
2022-11-25T09:03:59.476Z,-0.70
2022-11-25T09:06:27.688Z,-0.70
2022-11-25T09:09:01.719Z,-0.60
2022-11-25T09:11:28.964Z,-0.50
2022-11-25T09:13:56.052Z,-0.30
2022-11-25T09:16:23.098Z,-0.30
2022-11-25T09:18:55.628Z,-0.30
2022-11-25T09:21:25.213Z,-0.50
2022-11-25T09:23:54.196Z,-0.70
2022-11-25T09:26:26.380Z,-0.80
2022-11-25T09:28:53.240Z,-0.80
2022-11-25T09:31:20.629Z,-0.70
2022-11-25T09:33:47.712Z,-0.60
2022-11-25T09:36:16.224Z,-0.50
2022-11-25T09:38:46.280Z,-0.50
2022-11-25T09:41:53.528Z,-0.50
2022-11-25T09:44:38.789Z,-0.50
2022-11-25T09:47:30.920Z,-0.60
2022-11-25T09:50:10.219Z,-0.60
2022-11-25T09:52:47.036Z,-0.60
2022-11-25T09:55:24.181Z,-0.20
2022-11-25T09:58:32.766Z,-0.10
2022-11-25T10:01:02.010Z,-0.30
2022-11-25T10:03:46.005Z,-0.30
2022-11-25T10:06:21.455Z,-0.30
2022-11-25T10:08:55.078Z,-0.30
2022-11-25T10:11:26.654Z,0.60
2022-11-25T10:14:26.449Z,-0.40
2022-11-25T10:17:02.212Z,-0.40
2022-11-25T10:19:35.469Z,-0.50
2022-11-25T10:22:31.680Z,-0.50
2022-11-25T10:25:02.349Z,-0.40
2022-11-25T10:27:37.490Z,-0.50
2022-11-25T10:30:24.171Z,-0.50
2022-11-25T10:33:25.818Z,-0.40
2022-11-25T10:35:55.458Z,-0.20
2022-11-25T10:38:26.995Z,-0.20
2022-11-25T10:40:55.990Z,-0.40
2022-11-25T10:43:26.071Z,-0.50
2022-11-25T10:46:43.459Z,-0.50
2022-11-25T10:49:30.873Z,-0.60
2022-11-25T10:51:57.992Z,-0.70
2022-11-25T10:54:28.148Z,-0.70
2022-11-25T10:56:57.115Z,-0.60
2022-11-25T10:59:32.269Z,-0.50
2022-11-25T11:02:29.244Z,-0.50
2022-11-25T11:05:09.594Z,-0.50
2022-11-25T11:07:47.615Z,-0.40
2022-11-25T11:10:23.243Z,-0.20
2022-11-25T11:13:03.461Z,0.10
2022-11-25T11:15:40.648Z,0.20
2022-11-25T11:18:19.618Z,0.20
2022-11-25T11:20:49.338Z,-0.20
2022-11-25T11:23:16.363Z,-0.30
2022-11-25T11:25:54.314Z,-0.40
2022-11-25T11:28:36.185Z,-0.30
2022-11-25T11:31:04.633Z,-0.30
2022-11-25T11:33:54.271Z,-0.30
2022-11-25T11:36:39.122Z,-0.30
2022-11-25T11:39:15.066Z,-0.30
2022-11-25T11:42:04.959Z,-0.30
2022-11-25T11:44:32.265Z,-0.30
2022-11-25T11:47:08.594Z,0.00
2022-11-25T11:50:06.007Z,0.00
2022-11-25T11:52:54.696Z,1.30
2022-11-25T11:55:30.393Z,-0.10
2022-11-25T11:58:13.826Z,-0.30
2022-11-25T12:01:05.564Z,-0.10
2022-11-25T12:03:38.987Z,-0.30
2022-11-25T12:06:09.728Z,-0.30
2022-11-25T12:08:59.173Z,-0.30
2022-11-25T12:11:32.774Z,-0.50
2022-11-25T12:14:31.249Z,-0.60
2022-11-25T12:17:02.104Z,-0.60
2022-11-25T12:19:47.787Z,-0.60
2022-11-25T12:22:29.891Z,-0.50
2022-11-25T12:25:19.999Z,-0.60
2022-11-25T12:28:00.737Z,-0.50
2022-11-25T12:30:51.326Z,-0.40
2022-11-25T12:33:36.467Z,-0.30
2022-11-25T12:36:28.817Z,-0.40
2022-11-25T12:39:01.327Z,-0.40
2022-11-25T12:41:37.321Z,-0.60
2022-11-25T12:44:29.502Z,-0.70
2022-11-25T12:46:57.843Z,0.40
2022-11-25T12:49:31.264Z,-0.50
2022-11-25T12:52:08.015Z,-0.40
2022-11-25T12:55:00.622Z,-0.50
2022-11-25T12:57:30.230Z,-0.50
2022-11-25T13:03:35.018Z,-0.40
2022-11-25T13:06:05.076Z,-0.40
2022-11-25T13:08:40.739Z,-0.50
2022-11-25T13:11:26.332Z,0.60
2022-11-25T13:14:15.770Z,-0.40
2022-11-25T13:16:47.436Z,-0.30
2022-11-25T13:19:21.108Z,-0.40
2022-11-25T13:22:00.982Z,-0.50
2022-11-25T13:24:38.975Z,-0.50
2022-11-25T13:27:26.474Z,-0.50
2022-11-25T13:29:55.114Z,-0.50
2022-11-25T13:32:31.416Z,-0.40
2022-11-25T13:35:24.515Z,-0.50
2022-11-25T13:37:51.733Z,-0.30
2022-11-25T13:40:38.809Z,-0.30
2022-11-25T13:43:06.166Z,-0.40
2022-11-25T13:45:43.522Z,-0.30
2022-11-25T13:48:24.500Z,-0.20
2022-11-25T13:51:12.195Z,-0.20
2022-11-25T13:53:39.561Z,-0.20
2022-11-25T13:56:21.429Z,-0.10
2022-11-25T13:59:09.951Z,0.00
2022-11-25T14:02:01.442Z,-0.30
2022-11-25T14:04:56.615Z,-0.10
2022-11-25T14:07:58.451Z,-0.20
2022-11-25T14:10:39.911Z,-0.20
2022-11-25T14:13:37.097Z,-0.30
2022-11-25T14:16:21.795Z,-0.30
2022-11-25T14:19:50.598Z,-0.20
2022-11-25T14:22:43.171Z,-0.40
2022-11-25T14:28:30.998Z,-0.40
2022-11-25T14:31:03.917Z,-0.40
2022-11-25T14:33:36.638Z,-0.40
2022-11-25T14:36:12.901Z,-0.40
2022-11-25T14:38:49.811Z,-0.40
2022-11-25T14:41:35.523Z,-0.40
2022-11-25T14:44:07.044Z,-0.40
2022-11-25T14:46:33.926Z,-0.40
2022-11-25T14:49:05.097Z,-0.40
2022-11-25T14:51:37.884Z,-0.20
2022-11-25T14:54:08.660Z,-0.10
2022-11-25T14:56:37.057Z,-0.20
2022-11-25T14:59:04.143Z,0.00
2022-11-25T15:01:33.541Z,0.30
2022-11-25T15:04:08.778Z,0.20
2022-11-25T15:06:41.110Z,0.00
2022-11-25T15:09:31.619Z,0.20
2022-11-25T15:12:10.549Z,0.10
2022-11-25T15:14:41.667Z,0.20
2022-11-25T15:17:16.889Z,0.10
2022-11-25T15:22:29.246Z,0.00
2022-11-25T15:25:08.450Z,-0.10
2022-11-25T15:27:42.786Z,-0.10
2022-11-25T15:30:25.801Z,-0.10
2022-11-25T15:32:54.315Z,0.00
2022-11-25T15:35:24.062Z,-0.10
2022-11-25T15:37:51.090Z,-0.10
2022-11-25T15:40:33.094Z,-0.20
2022-11-25T15:43:02.455Z,-0.20
2022-11-25T15:45:43.798Z,0.30
2022-11-25T15:48:29.757Z,0.30
2022-11-25T15:51:21.926Z,0.40
2022-11-25T15:53:55.085Z,0.50
2022-11-25T15:56:26.176Z,0.50
2022-11-25T15:58:56.179Z,0.50
2022-11-25T16:01:28.636Z,0.30
2022-11-25T16:04:21.233Z,0.50
2022-11-25T16:06:56.433Z,0.40
2022-11-25T16:09:25.446Z,0.20
2022-11-25T16:11:52.789Z,0.40
2022-11-25T16:14:29.208Z,0.20
2022-11-25T16:17:01.681Z,0.00
2022-11-25T16:19:38.060Z,0.00
2022-11-25T16:22:05.779Z,0.30
2022-11-25T16:24:40.770Z,0.60
2022-11-25T16:27:23.184Z,0.40
2022-11-25T16:30:08.498Z,0.20
2022-11-25T16:32:35.756Z,0.20
2022-11-25T16:35:21.200Z,0.30
2022-11-25T16:37:49.588Z,0.20
2022-11-25T16:40:18.319Z,0.40
2022-11-25T16:42:49.941Z,0.40
2022-11-25T16:45:22.399Z,0.50
2022-11-25T16:47:49.427Z,0.50
2022-11-25T16:50:17.769Z,0.60
2022-11-25T16:52:44.932Z,0.50
2022-11-25T16:55:12.520Z,0.50
2022-11-25T16:57:41.940Z,0.30
2022-11-25T17:00:14.525Z,0.30
2022-11-25T17:02:41.490Z,0.50
2022-11-25T17:05:18.801Z,0.50
2022-11-25T17:07:45.918Z,0.70
2022-11-25T17:10:12.812Z,0.80
2022-11-25T17:12:42.685Z,0.80
2022-11-25T17:15:18.769Z,0.70
2022-11-25T17:17:49.170Z,0.80
2022-11-25T17:20:17.914Z,1.60
2022-11-25T17:22:44.895Z,0.80
2022-11-25T17:25:13.146Z,0.70
2022-11-25T17:27:40.570Z,0.70
2022-11-25T17:30:16.372Z,0.70
2022-11-25T17:32:43.263Z,0.70
2022-11-25T17:35:19.211Z,0.60
2022-11-25T17:37:46.802Z,0.40
2022-11-25T17:40:14.133Z,0.20
2022-11-25T17:42:42.009Z,0.20
2022-11-25T17:45:13.912Z,0.50
2022-11-25T17:47:41.074Z,0.60
2022-11-25T17:50:26.580Z,0.60
2022-11-25T17:52:53.560Z,0.60
2022-11-25T17:55:22.031Z,0.70
2022-11-25T17:57:49.789Z,0.70
2022-11-25T18:00:21.921Z,0.80
2022-11-25T18:02:49.692Z,0.80
2022-11-25T18:05:20.490Z,0.80
2022-11-25T18:07:48.120Z,0.80
2022-11-25T18:10:17.782Z,0.80
2022-11-25T18:12:47.210Z,0.70
2022-11-25T18:15:20.609Z,0.70
2022-11-25T18:17:49.045Z,0.70
2022-11-25T18:20:21.976Z,0.70
2022-11-25T18:22:50.067Z,0.50
2022-11-25T18:25:19.210Z,0.60
2022-11-25T18:27:47.218Z,0.50
2022-11-25T18:30:20.638Z,0.60
2022-11-25T18:32:47.785Z,0.60
2022-11-25T18:35:21.826Z,0.60
2022-11-25T18:37:49.191Z,0.60
2022-11-25T18:40:17.125Z,0.70
2022-11-25T18:42:47.327Z,0.60
2022-11-25T18:45:27.102Z,0.60
2022-11-25T18:47:54.464Z,0.50
2022-11-25T18:50:23.928Z,0.60
2022-11-25T18:52:51.326Z,0.50
2022-11-25T18:55:20.962Z,0.80
2022-11-25T18:57:50.083Z,0.60
2022-11-25T19:00:32.658Z,0.60
2022-11-25T19:03:00.865Z,0.70
2022-11-25T19:05:33.362Z,0.80
2022-11-25T19:08:00.406Z,0.30
2022-11-25T19:10:34.375Z,0.80
2022-11-25T19:13:03.789Z,0.70
2022-11-25T19:18:00.950Z,0.80
2022-11-25T19:23:01.480Z,0.70
2022-11-25T19:25:29.426Z,0.60
2022-11-25T19:27:59.385Z,0.80
2022-11-25T19:30:29.841Z,0.80
2022-11-25T19:32:58.763Z,0.90
2022-11-25T19:35:37.487Z,0.70
2022-11-25T19:38:21.887Z,0.80
2022-11-25T19:40:49.522Z,0.80
2022-11-25T19:43:16.652Z,0.80
2022-11-25T19:45:44.774Z,0.90
2022-11-25T19:48:18.302Z,0.80
2022-11-25T19:50:47.172Z,0.60
2022-11-25T19:53:20.344Z,0.70
2022-11-25T19:55:50.614Z,0.70
2022-11-25T20:00:47.355Z,0.60
2022-11-25T20:03:26.806Z,0.80
2022-11-25T20:05:54.832Z,0.80
2022-11-25T20:08:27.492Z,0.80
2022-11-25T20:10:55.556Z,0.80
2022-11-25T20:13:26.294Z,0.70
2022-11-25T20:15:55.843Z,0.50
2022-11-25T20:18:24.879Z,0.60
2022-11-25T20:21:04.942Z,0.70
2022-11-25T20:23:43.689Z,0.80
2022-11-25T20:26:25.045Z,0.80
2022-11-25T20:28:51.871Z,0.80
2022-11-25T20:36:19.081Z,0.80
2022-11-25T20:38:52.925Z,1.50
2022-11-25T20:43:56.499Z,0.70
2022-11-25T20:46:27.058Z,0.70
2022-11-25T20:48:56.842Z,0.60
2022-11-25T20:51:24.468Z,0.80
2022-11-25T20:53:53.903Z,0.60
2022-11-25T20:56:23.237Z,0.60
2022-11-25T20:58:50.250Z,0.50
2022-11-25T21:01:20.940Z,0.60
2022-11-25T21:03:49.598Z,0.70
2022-11-25T21:08:47.707Z,0.70
2022-11-25T21:13:42.323Z,0.50
2022-11-25T21:16:09.400Z,0.70
2022-11-25T21:23:35.057Z,0.80
2022-11-25T21:26:06.554Z,0.90
2022-11-25T21:28:39.610Z,1.00
2022-11-25T21:31:11.111Z,0.90
2022-11-25T21:33:38.208Z,1.00
2022-11-25T21:36:05.358Z,0.90
2022-11-25T21:38:32.388Z,1.00
2022-11-25T21:40:59.331Z,0.90
2022-11-25T21:43:28.435Z,0.80
2022-11-25T21:46:01.772Z,0.90
2022-11-25T21:48:29.713Z,0.80
2022-11-25T21:50:56.787Z,0.90
2022-11-25T21:53:23.985Z,1.10
2022-11-25T21:58:18.557Z,0.80
2022-11-25T22:00:50.821Z,0.80
2022-11-25T22:03:19.861Z,0.80
2022-11-25T22:05:47.419Z,0.90
2022-11-25T22:08:14.682Z,1.00
2022-11-25T22:10:45.253Z,1.10
2022-11-25T22:13:23.673Z,1.30
2022-11-25T22:15:56.941Z,1.10
2022-11-25T22:18:30.806Z,0.60
2022-11-25T22:20:58.308Z,1.10
2022-11-25T22:23:25.365Z,1.20
2022-11-25T22:25:52.802Z,0.80
2022-11-25T22:28:25.779Z,1.00
2022-11-25T22:31:00.233Z,1.00
2022-11-25T22:33:33.815Z,1.10
2022-11-25T22:38:31.801Z,1.20
2022-11-25T22:41:05.039Z,1.00
2022-11-25T22:43:38.773Z,1.40
2022-11-25T22:48:39.514Z,1.00
2022-11-25T22:51:12.150Z,1.80
2022-11-25T22:53:39.123Z,1.10
2022-11-25T22:56:14.569Z,1.10
2022-11-25T23:01:14.374Z,1.00
2022-11-25T23:03:42.471Z,1.10
2022-11-25T23:06:13.930Z,0.90
2022-11-25T23:11:19.555Z,1.00
2022-11-25T23:13:48.817Z,1.10
2022-11-25T23:16:16.289Z,1.10
2022-11-25T23:18:45.927Z,0.90
2022-11-25T23:21:27.996Z,0.80
2022-11-25T23:23:55.668Z,1.10
2022-11-25T23:31:37.879Z,1.20
2022-11-25T23:34:09.775Z,1.20
2022-11-25T23:36:44.828Z,1.20
2022-11-25T23:39:25.611Z,1.20
2022-11-25T23:41:53.666Z,1.20
2022-11-25T23:44:25.978Z,1.30
2022-11-25T23:47:00.395Z,1.20
2022-11-25T23:49:33.062Z,1.20
2022-11-25T23:52:07.622Z,1.10
2022-11-25T23:54:42.720Z,1.00
2022-11-25T23:57:23.026Z,1.10
2022-11-25T23:59:50.905Z,1.10
